Time;durP1;ratioP1;P1;durP2;ratioP2;P2;SDS_P1;SDS_P2;PMS_P1;PMS_P2;Temp;Humidity;BMP_temperature;BMP_pressure;BME280_temperature;BME280_humidity;BME280_pressure;Samples;Min_cycle;Max_cycle;Signal;HPM_P1;HPM_P2
2022/09/02 00:01:36;;;;;;;6.03;4.38;;;;;;;18.36;100.00;96442.19;5023578;28;20069;-47
2022/09/02 00:04:09;;;;;;;4.53;3.90;;;;;;;18.42;100.00;96441.44;5023082;28;20076;-46
2022/09/02 00:06:38;;;;;;;6.30;3.75;;;;;;;18.46;100.00;96434.69;5026154;28;20512;-48
2022/09/02 00:09:08;;;;;;;6.30;4.47;;;;;;;18.46;100.00;96432.00;5028993;28;20072;-47
2022/09/02 00:11:37;;;;;;;5.65;4.28;;;;;;;17.66;100.00;96439.28;5019961;28;20088;-49
2022/09/02 00:14:09;;;;;;;4.68;4.03;;;;;;;18.26;100.00;96431.84;5025407;28;20057;-51
2022/09/02 00:16:38;;;;;;;5.75;3.88;;;;;;;18.28;100.00;96427.16;5022301;28;20085;-49
2022/09/02 00:19:11;;;;;;;6.78;4.13;;;;;;;18.15;100.00;96430.53;5025787;28;20080;-46
2022/09/02 00:21:39;;;;;;;5.55;4.10;;;;;;;18.04;100.00;96425.72;5018375;28;20083;-48
2022/09/02 00:24:08;;;;;;;4.68;3.88;;;;;;;18.14;100.00;96428.91;5021753;28;20053;-46
2022/09/02 00:26:37;;;;;;;6.13;4.40;;;;;;;18.22;100.00;96430.59;5021176;28;20072;-49
2022/09/02 00:29:05;;;;;;;4.78;4.25;;;;;;;18.30;100.00;96426.94;5027783;28;20060;-48
2022/09/02 00:31:35;;;;;;;4.47;3.90;;;;;;;18.26;100.00;96424.66;5022873;28;20085;-46
2022/09/02 00:34:04;;;;;;;5.47;3.90;;;;;;;18.27;100.00;96417.47;5017422;28;20080;-49
2022/09/02 00:36:34;;;;;;;4.93;4.03;;;;;;;18.23;100.00;96422.38;5025344;28;21046;-48
2022/09/02 00:39:04;;;;;;;5.10;3.60;;;;;;;18.26;100.00;96421.19;5018795;28;20084;-47
2022/09/02 00:41:33;;;;;;;4.40;3.25;;;;;;;18.03;100.00;96421.38;5019112;28;20092;-47
2022/09/02 00:44:04;;;;;;;4.38;3.10;;;;;;;17.97;100.00;96425.66;5027070;28;20432;-51
2022/09/02 00:46:33;;;;;;;3.67;2.80;;;;;;;17.85;100.00;96411.19;5026324;28;20555;-47
2022/09/02 00:49:06;;;;;;;3.83;3.00;;;;;;;17.87;100.00;96416.34;5021458;28;20085;-51
2022/09/02 00:51:42;;;;;;;3.47;3.10;;;;;;;17.76;100.00;96418.50;5027080;28;20088;-49
2022/09/02 00:54:11;;;;;;;5.43;3.47;;;;;;;17.74;100.00;96417.81;5023966;28;20069;-47
2022/09/02 00:56:42;;;;;;;3.73;3.43;;;;;;;17.76;100.00;96417.69;5026438;28;20081;-46
2022/09/02 00:59:15;;;;;;;7.10;3.47;;;;;;;17.70;100.00;96419.22;5027163;28;20473;-52
2022/09/02 01:01:43;;;;;;;4.25;3.65;;;;;;;17.91;100.00;96422.94;5026462;28;20106;-48
2022/09/02 01:04:12;;;;;;;4.82;4.07;;;;;;;17.90;100.00;96421.31;5023147;28;20085;-52
2022/09/02 01:06:43;;;;;;;4.45;3.83;;;;;;;17.92;100.00;96414.72;5024298;28;20081;-52
2022/09/02 01:09:14;;;;;;;4.40;3.65;;;;;;;17.94;100.00;96422.56;5022116;28;20073;-50
2022/09/02 01:11:46;;;;;;;3.88;3.47;;;;;;;17.87;100.00;96413.69;5018788;28;20072;-47
2022/09/02 01:14:15;;;;;;;4.55;3.30;;;;;;;17.80;100.00;96421.63;5020785;28;20084;-49
2022/09/02 01:16:46;;;;;;;4.18;3.30;;;;;;;17.53;100.00;96420.47;5026217;28;20114;-48
2022/09/02 01:19:21;;;;;;;4.63;3.50;;;;;;;17.21;100.00;96413.78;5022511;28;20081;-49
2022/09/02 01:21:52;;;;;;;6.00;3.80;;;;;;;17.33;100.00;96418.41;5018443;28;20068;-46
2022/09/02 01:24:20;;;;;;;;;;;;;;;17.42;100.00;96415.66;5022286;28;20088;-49
2022/09/02 01:26:52;;;;;;;4.15;3.70;;;;;;;17.51;100.00;96419.84;5018949;28;19960;-50
2022/09/02 01:29:20;;;;;;;4.65;4.03;;;;;;;17.19;100.00;96413.13;5025772;28;20491;-45
2022/09/02 01:31:49;;;;;;;6.32;4.07;;;;;;;17.05;100.00;96414.81;5019105;28;20091;-46
2022/09/02 01:34:18;;;;;;;4.90;4.40;;;;;;;16.86;100.00;96416.19;5025255;28;20068;-46
2022/09/02 01:36:46;;;;;;;6.22;3.95;;;;;;;17.22;100.00;96408.25;5025285;28;20088;-47
2022/09/02 01:39:16;;;;;;;4.72;4.00;;;;;;;17.26;100.00;96408.69;5024888;28;20115;-50
2022/09/02 01:41:44;;;;;;;6.07;4.90;;;;;;;17.40;100.00;96412.34;5021050;28;20093;-53
2022/09/02 01:44:15;;;;;;;5.38;4.88;;;;;;;17.48;100.00;96414.88;5019448;28;20437;-48
2022/09/02 01:46:43;;;;;;;5.70;4.65;;;;;;;17.34;100.00;96416.56;5021268;28;20480;-50
2022/09/02 01:49:12;;;;;;;6.57;4.97;;;;;;;17.49;100.00;96409.38;5023203;28;20088;-51
2022/09/02 01:51:40;;;;;;;5.65;5.05;;;;;;;17.19;100.00;96400.63;5018884;28;20077;-48
2022/09/02 01:54:08;;;;;;;6.28;5.00;;;;;;;17.17;100.00;96405.34;5022597;28;20798;-46
2022/09/02 01:56:39;;;;;;;8.13;5.13;;;;;;;17.26;100.00;96404.19;5026183;28;20077;-46
2022/09/02 01:59:10;;;;;;;5.20;4.68;;;;;;;17.21;100.00;96398.63;5023421;28;20559;-49
2022/09/02 02:01:38;;;;;;;8.23;4.85;;;;;;;16.54;100.00;96404.06;5017398;28;20080;-47
2022/09/02 02:04:07;;;;;;;6.18;5.18;;;;;;;16.78;100.00;96395.00;5024683;28;20077;-49
2022/09/02 02:06:42;;;;;;;7.50;5.50;;;;;;;16.90;100.00;96396.19;5026207;28;20077;-46
2022/09/02 02:09:10;;;;;;;6.37;5.73;;;;;;;16.91;100.00;96389.03;5019326;28;20085;-52
2022/09/02 02:11:40;;;;;;;7.13;5.78;;;;;;;16.94;100.00;96397.47;5017076;28;20515;-46
2022/09/02 02:14:09;;;;;;;8.13;5.50;;;;;;;17.09;100.00;96387.59;5013583;28;20077;-48
2022/09/02 02:16:38;;;;;;;9.43;5.70;;;;;;;16.44;100.00;96395.50;5019068;28;20066;-47
2022/09/02 02:19:06;;;;;;;8.30;6.40;;;;;;;16.80;100.00;96396.47;5015669;28;20069;-48
2022/09/02 02:21:34;;;;;;;9.65;6.30;;;;;;;16.78;100.00;96390.50;5018004;28;20104;-52
2022/09/02 02:24:04;;;;;;;7.35;6.32;;;;;;;16.79;100.00;96386.84;5019971;28;20080;-48
2022/09/02 02:26:32;;;;;;;9.15;5.88;;;;;;;16.79;100.00;96381.50;5024758;28;20516;-46
2022/09/02 02:29:02;;;;;;;6.82;5.88;;;;;;;16.98;100.00;96380.09;5015002;28;20084;-47
2022/09/02 02:31:30;;;;;;;6.60;6.00;;;;;;;16.78;100.00;96387.00;5022911;28;20077;-45
2022/09/02 02:34:00;;;;;;;8.02;6.07;;;;;;;16.87;100.00;96380.56;5023086;28;20092;-52
2022/09/02 02:36:29;;;;;;;6.60;6.00;;;;;;;16.73;100.00;96381.41;5032354;28;20069;-49
2022/09/02 02:38:57;;;;;;;7.85;6.20;;;;;;;16.57;100.00;96382.41;5031991;28;20092;-49
2022/09/02 02:41:26;;;;;;;9.02;6.45;;;;;;;16.50;100.00;96378.81;5029876;28;20137;-50
2022/09/02 02:43:54;;;;;;;6.93;6.22;;;;;;;16.37;100.00;96382.13;5031675;28;20093;-48
2022/09/02 02:46:24;;;;;;;6.95;6.22;;;;;;;16.04;100.00;96385.13;5031802;28;20053;-48
2022/09/02 02:48:52;;;;;;;8.65;6.32;;;;;;;16.41;100.00;96375.41;5031713;28;20088;-47
2022/09/02 02:51:21;;;;;;;8.55;6.10;;;;;;;16.66;100.00;96372.50;5031068;28;20180;-47
2022/09/02 02:53:49;;;;;;;7.95;6.35;;;;;;;16.47;100.00;96380.00;5026034;28;20088;-48
2022/09/02 02:56:17;;;;;;;11.13;7.15;;;;;;;16.68;100.00;96378.44;5031831;28;20091;-45
2022/09/02 02:58:46;;;;;;;7.43;6.63;;;;;;;16.82;100.00;96378.44;5030297;28;20144;-48
2022/09/02 03:01:14;;;;;;;10.32;7.03;;;;;;;16.81;100.00;96376.81;5025700;28;20709;-45
2022/09/02 03:03:44;;;;;;;7.95;6.80;;;;;;;16.84;100.00;96373.78;5031197;28;20080;-48
2022/09/02 03:06:12;;;;;;;8.53;6.80;;;;;;;16.79;100.00;96372.66;5028163;28;20077;-48
2022/09/02 03:08:41;;;;;;;7.40;6.45;;;;;;;16.61;100.00;96378.34;5026143;28;20503;-50
2022/09/02 03:11:09;;;;;;;8.68;6.75;;;;;;;16.82;100.00;96364.31;5020053;28;20073;-53
2022/09/02 03:13:38;;;;;;;7.43;6.72;;;;;;;16.91;100.00;96365.06;5025117;28;20089;-45
2022/09/02 03:16:06;;;;;;;10.90;7.13;;;;;;;16.93;100.00;96363.84;5024268;28;20065;-48
2022/09/02 03:18:35;;;;;;;9.80;6.70;;;;;;;16.96;100.00;96360.78;5026531;28;20084;-50
2022/09/02 03:21:08;;;;;;;9.05;6.60;;;;;;;17.02;100.00;96359.22;5025985;28;20076;-49
2022/09/02 03:23:36;;;;;;;8.55;7.05;;;;;;;16.70;100.00;96357.78;5025824;28;20092;-48
2022/09/02 03:26:09;;;;;;;10.73;7.25;;;;;;;16.73;100.00;96357.44;5024773;28;20498;-51
2022/09/02 03:28:38;;;;;;;7.95;6.35;;;;;;;16.84;100.00;96355.13;5025892;28;20081;-53
2022/09/02 03:31:07;;;;;;;8.75;6.85;;;;;;;16.63;100.00;96360.38;5022457;28;20467;-48
2022/09/02 03:33:35;;;;;;;11.15;6.90;;;;;;;16.77;100.00;96354.22;5025479;28;20476;-51
2022/09/02 03:36:04;;;;;;;7.82;6.72;;;;;;;16.65;100.00;96362.84;5025079;28;20084;-49
2022/09/02 03:38:34;;;;;;;7.70;6.90;;;;;;;16.59;100.00;96357.25;5022926;28;20081;-46
2022/09/02 03:41:02;;;;;;;;;;;;;;;16.63;100.00;96362.22;5027535;28;20091;-50
2022/09/02 03:43:31;;;;;;;9.13;6.75;;;;;;;16.71;100.00;96362.91;5020354;28;19949;-51
2022/09/02 03:45:59;;;;;;;9.98;7.22;;;;;;;16.76;100.00;96359.75;5025558;28;20092;-51
2022/09/02 03:48:28;;;;;;;10.13;7.22;;;;;;;16.66;100.00;96346.69;5028486;28;20514;-47
2022/09/02 03:50:56;;;;;;;8.20;7.40;;;;;;;16.55;100.00;96355.97;5029821;28;20103;-46
2022/09/02 03:53:25;;;;;;;9.95;7.20;;;;;;;16.59;100.00;96353.75;5028659;28;20073;-46
2022/09/02 03:55:55;;;;;;;9.55;7.50;;;;;;;16.59;100.00;96359.09;5029553;28;20088;-52
2022/09/02 03:58:23;;;;;;;8.03;7.23;;;;;;;16.33;100.00;96362.19;5030313;28;20096;-50
2022/09/02 04:00:52;;;;;;;8.93;7.50;;;;;;;16.28;100.00;96360.09;5027884;28;20085;-48
2022/09/02 04:03:21;;;;;;;14.20;7.88;;;;;;;16.33;100.00;96357.69;5025634;28;20073;-48
2022/09/02 04:05:51;;;;;;;9.85;7.45;;;;;;;16.65;100.00;96347.69;5030371;28;20104;-48
2022/09/02 04:08:19;;;;;;;9.65;7.20;;;;;;;16.52;100.00;96352.84;5030570;28;20092;-49
2022/09/02 04:10:48;;;;;;;8.80;6.95;;;;;;;16.60;100.00;96345.59;5022794;28;20089;-48
2022/09/02 04:13:18;;;;;;;8.18;6.90;;;;;;;16.58;100.00;96347.59;5030487;28;20089;-49
2022/09/02 04:15:47;;;;;;;8.82;6.70;;;;;;;16.30;100.00;96344.75;5024934;28;20081;-52
2022/09/02 04:18:17;;;;;;;8.00;7.00;;;;;;;16.47;100.00;96341.91;5030364;28;20159;-51
2022/09/02 04:20:45;;;;;;;9.05;7.13;;;;;;;16.33;100.00;96347.06;5030483;28;20445;-47
2022/09/02 04:23:15;;;;;;;7.70;6.90;;;;;;;16.28;100.00;96353.97;5029892;28;20095;-55
2022/09/02 04:25:44;;;;;;;9.38;7.03;;;;;;;16.34;100.00;96350.53;5029991;28;20061;-48
2022/09/02 04:28:12;;;;;;;7.38;6.68;;;;;;;16.10;100.00;96363.13;5030348;28;20160;-50
2022/09/02 04:30:43;;;;;;;7.00;6.30;;;;;;;16.15;100.00;96357.25;5028410;28;20096;-50
2022/09/02 04:33:12;;;;;;;8.15;6.75;;;;;;;16.32;100.00;96348.06;5030104;28;20069;-50
2022/09/02 04:35:41;;;;;;;8.35;6.72;;;;;;;16.32;100.00;96353.41;5029903;28;20476;-50
2022/09/02 04:38:10;;;;;;;9.30;7.03;;;;;;;16.33;100.00;96360.38;5028351;28;20085;-51
2022/09/02 04:40:40;;;;;;;8.27;7.40;;;;;;;16.36;100.00;96353.84;5029364;28;20101;-51
2022/09/02 04:43:09;;;;;;;;;;;;;;;16.49;100.00;96353.22;5030760;28;20088;-46
2022/09/02 04:45:39;;;;;;;8.00;6.70;;;;;;;16.50;100.00;96354.88;5029919;28;19960;-45
2022/09/02 04:48:09;;;;;;;9.07;6.80;;;;;;;16.60;100.00;96350.09;5028808;28;20091;-48
2022/09/02 04:50:39;;;;;;;8.00;7.20;;;;;;;16.68;100.00;96357.97;5028726;28;20111;-45
2022/09/02 04:53:08;;;;;;;10.85;6.90;;;;;;;16.51;100.00;96353.84;5024189;28;20906;-49
2022/09/02 04:55:39;;;;;;;8.85;7.03;;;;;;;16.59;100.00;96359.91;5028802;28;20080;-49
2022/09/02 04:58:08;;;;;;;7.18;6.25;;;;;;;16.44;100.00;96361.75;5026382;28;20520;-46
2022/09/02 05:00:37;;;;;;;7.95;6.95;;;;;;;16.63;100.00;96363.03;5023354;28;20555;-48
2022/09/02 05:03:06;;;;;;;10.13;7.82;;;;;;;17.69;100.00;96355.41;5029664;28;20081;-54
2022/09/02 05:05:37;;;;;;;7.80;7.03;;;;;;;18.09;100.00;96350.41;5029770;28;20081;-50
2022/09/02 05:08:06;;;;;;;7.05;5.88;;;;;;;18.41;100.00;96348.97;5027016;28;20101;-50
2022/09/02 05:10:35;;;;;;;5.93;5.13;;;;;;;18.94;100.00;96346.63;5029020;28;20076;-50
2022/09/02 05:13:03;;;;;;;7.85;4.95;;;;;;;19.21;100.00;96350.22;5029266;28;20116;-50
2022/09/02 05:15:32;;;;;;;7.30;4.40;;;;;;;19.53;100.00;96359.31;5028971;28;20085;-54
2022/09/02 05:18:00;;;;;;;5.72;4.93;;;;;;;18.79;100.00;96351.25;5029595;28;20081;-54
2022/09/02 05:20:31;;;;;;;7.28;4.70;;;;;;;17.86;100.00;96362.16;5026039;28;20046;-46
2022/09/02 05:23:02;;;;;;;6.45;4.63;;;;;;;17.94;100.00;96361.19;5028997;28;20080;-49
2022/09/02 05:25:30;;;;;;;5.22;4.72;;;;;;;17.99;100.00;96359.56;5024808;28;20069;-50
2022/09/02 05:27:58;;;;;;;8.77;5.05;;;;;;;17.76;100.00;96365.16;5023121;28;20080;-49
2022/09/02 05:30:26;;;;;;;8.50;5.40;;;;;;;17.72;100.00;96365.69;5025792;28;20493;-52
2022/09/02 05:32:56;;;;;;;6.72;4.97;;;;;;;18.03;100.00;96362.69;5029063;28;20096;-47
2022/09/02 05:35:24;;;;;;;8.70;5.05;;;;;;;18.05;100.00;96360.66;5020987;28;20085;-49
2022/09/02 05:37:52;;;;;;;6.18;4.95;;;;;;;18.02;100.00;96359.19;5029145;28;20563;-46
2022/09/02 05:40:29;;;;;;;6.50;4.90;;;;;;;17.74;100.00;96359.16;5028754;28;20073;-49
2022/09/02 05:42:57;;;;;;;6.53;5.38;;;;;;;18.35;100.00;96363.13;5027733;28;20081;-54
2022/09/02 05:45:25;;;;;;;5.82;4.45;;;;;;;17.95;100.00;96363.66;5028742;28;20163;-50
2022/09/02 05:47:54;;;;;;;7.25;4.55;;;;;;;18.36;100.00;96357.59;5028749;28;20055;-53
2022/09/02 05:50:22;;;;;;;5.80;4.70;;;;;;;18.48;100.00;96358.69;5027007;28;20079;-48
2022/09/02 05:52:51;;;;;;;5.05;4.38;;;;;;;18.59;100.00;96365.34;5028452;28;20519;-51
2022/09/02 05:55:19;;;;;;;5.15;4.53;;;;;;;18.82;100.00;96358.88;5025122;28;20084;-53
2022/09/02 05:57:49;;;;;;;5.57;4.65;;;;;;;18.09;100.00;96366.44;5027658;28;20056;-53
2022/09/02 06:00:18;;;;;;;8.32;4.20;;;;;;;18.07;100.00;96360.47;5028746;28;20084;-53
2022/09/02 06:02:46;;;;;;;5.25;3.70;;;;;;;18.56;100.00;96357.72;5027394;28;20097;-53
2022/09/02 06:05:16;;;;;;;5.13;3.90;;;;;;;18.63;100.00;96357.75;5028916;28;20076;-53
2022/09/02 06:07:44;;;;;;;4.32;3.70;;;;;;;18.65;100.00;96358.34;5028370;28;20092;-54
2022/09/02 06:10:13;;;;;;;6.25;4.40;;;;;;;18.69;100.00;96354.28;5032271;28;20084;-53
2022/09/02 06:12:42;;;;;;;4.57;4.13;;;;;;;18.96;100.00;96363.28;5032710;28;20088;-53
2022/09/02 06:15:13;;;;;;;6.03;3.60;;;;;;;19.48;100.00;96361.78;5032993;28;20555;-52
2022/09/02 06:17:42;;;;;;;9.48;4.10;;;;;;;18.97;100.00;96356.91;5032525;28;20092;-48
2022/09/02 06:20:11;;;;;;;5.57;3.65;;;;;;;19.53;100.00;96353.16;5032413;28;20092;-50
2022/09/02 06:22:39;;;;;;;6.07;3.80;;;;;;;19.30;100.00;96353.50;5032805;28;20080;-55
2022/09/02 06:25:08;;;;;;;6.93;3.60;;;;;;;19.83;100.00;96346.44;5033155;28;20087;-54
2022/09/02 06:27:37;;;;;;;3.80;3.40;;;;;;;19.39;100.00;96346.94;5032806;28;20092;-53
2022/09/02 06:30:06;;;;;;;3.50;3.20;;;;;;;19.31;100.00;96344.47;5032132;28;20460;-54
2022/09/02 06:32:36;;;;;;;4.13;3.17;;;;;;;19.61;100.00;96342.25;5026187;28;20632;-52
2022/09/02 06:35:07;;;;;;;3.45;3.10;;;;;;;18.80;100.00;96343.06;5032913;28;20076;-54
2022/09/02 06:37:35;;;;;;;;;;;;;;;19.84;100.00;96348.06;5033264;28;20457;-53
2022/09/02 06:40:05;;;;;;;3.85;2.95;;;;;;;19.51;100.00;96340.00;5030235;28;19964;-50
2022/09/02 06:42:33;;;;;;;4.40;3.17;;;;;;;20.02;100.00;96335.91;5032080;28;20149;-53
2022/09/02 06:45:02;;;;;;;5.57;3.20;;;;;;;19.81;100.00;96343.13;5028123;28;20070;-53
2022/09/02 06:47:31;;;;;;;6.05;3.10;;;;;;;19.32;100.00;96343.44;5031997;28;20547;-56
2022/09/02 06:50:01;;;;;;;4.80;2.95;;;;;;;20.42;100.00;96342.03;5031320;28;20699;-49
2022/09/02 06:52:30;;;;;;;7.57;3.38;;;;;;;19.90;100.00;96343.75;5024765;28;20550;-56
2022/09/02 06:54:58;;;;;;;5.15;3.40;;;;;;;19.44;100.00;96348.00;5025628;28;20073;-50
2022/09/02 06:57:27;;;;;;;4.05;3.00;;;;;;;20.29;100.00;96350.91;5028591;28;20092;-51
2022/09/02 07:00:02;;;;;;;9.23;3.30;;;;;;;20.06;100.00;96348.69;5022130;28;20100;-51
2022/09/02 07:02:30;;;;;;;5.18;2.80;;;;;;;19.75;100.00;96349.31;5031727;28;20472;-50
2022/09/02 07:05:13;;;;;;;3.65;2.47;;;;;;;19.93;100.00;96346.00;5032017;28;20076;-49
2022/09/02 07:07:46;;;;;;;5.72;2.90;;;;;;;20.54;100.00;96342.25;5031903;28;20088;-50
2022/09/02 07:10:15;;;;;;;3.63;2.47;;;;;;;20.52;100.00;96347.81;5031578;28;20092;-49
2022/09/02 07:12:43;;;;;;;3.58;2.47;;;;;;;20.37;100.00;96339.16;5031162;28;20633;-49
2022/09/02 07:15:12;;;;;;;5.65;2.50;;;;;;;20.05;100.00;96349.69;5029347;28;20069;-52
2022/09/02 07:17:40;;;;;;;3.15;2.30;;;;;;;20.11;100.00;96356.09;5031800;28;20543;-51
2022/09/02 07:20:10;;;;;;;3.65;2.40;;;;;;;20.60;100.00;96342.22;5030722;28;20085;-53
2022/09/02 07:22:38;;;;;;;3.83;2.58;;;;;;;20.62;100.00;96345.53;5031720;28;20077;-48
2022/09/02 07:25:09;;;;;;;4.50;2.50;;;;;;;20.73;100.00;96336.00;5031156;28;20698;-47
2022/09/02 07:27:38;;;;;;;2.35;2.10;;;;;;;20.49;100.00;96336.69;5029375;28;20096;-49
2022/09/02 07:30:07;;;;;;;2.80;2.20;;;;;;;21.30;100.00;96336.16;5031061;28;20073;-53
2022/09/02 07:32:36;;;;;;;3.30;2.22;;;;;;;22.16;100.00;96345.50;5031220;28;20081;-50
2022/09/02 07:35:06;;;;;;;4.10;2.28;;;;;;;21.00;100.00;96352.00;5031820;28;20077;-48
2022/09/02 07:37:35;;;;;;;4.50;2.15;;;;;;;20.87;100.00;96342.16;5030834;28;20519;-46
2022/09/02 07:40:05;;;;;;;2.20;2.00;;;;;;;20.73;100.00;96343.22;5031074;28;20079;-50
2022/09/02 07:42:35;;;;;;;3.83;2.40;;;;;;;20.82;100.00;96348.16;5024751;28;20080;-49
2022/09/02 07:45:05;;;;;;;2.80;2.05;;;;;;;20.91;100.00;96342.53;5025165;28;20089;-54
2022/09/02 07:47:33;;;;;;;2.88;2.30;;;;;;;20.79;100.00;96337.84;5026539;28;20496;-57
2022/09/02 07:50:06;;;;;;;4.50;2.35;;;;;;;21.25;100.00;96336.00;5026036;28;20068;-54
2022/09/02 07:52:44;;;;;;;3.67;2.20;;;;;;;21.25;100.00;96338.66;5030811;28;20093;-51
2022/09/02 07:55:12;;;;;;;3.83;2.15;;;;;;;21.49;100.00;96340.63;5030411;28;20096;-51
2022/09/02 07:57:43;;;;;;;2.83;2.05;;;;;;;21.68;100.00;96338.84;5030702;28;20081;-50
2022/09/02 08:00:13;;;;;;;3.28;2.20;;;;;;;21.37;100.00;96339.69;5026767;28;20088;-50
2022/09/02 08:02:43;;;;;;;3.42;2.33;;;;;;;21.60;100.00;96340.97;5030412;28;20076;-50
2022/09/02 08:05:12;;;;;;;3.42;2.42;;;;;;;21.09;100.00;96338.16;5030892;28;20536;-54
2022/09/02 08:07:41;;;;;;;6.90;2.80;;;;;;;21.23;100.00;96346.09;5030660;28;20081;-53
2022/09/02 08:10:11;;;;;;;3.47;2.38;;;;;;;21.30;100.00;96341.53;5023463;28;20085;-47
2022/09/02 08:12:40;;;;;;;2.38;2.00;;;;;;;21.36;96.38;96338.00;5030620;28;20554;-51
2022/09/02 08:15:28;;;;;;;4.78;2.10;;;;;;;21.03;96.49;96336.31;5030755;28;20065;-52
2022/09/02 08:17:58;;;;;;;4.28;2.03;;;;;;;21.20;98.41;96339.31;5030724;28;20211;-47
2022/09/02 08:20:29;;;;;;;5.78;2.05;;;;;;;21.95;93.83;96344.81;5030232;28;20077;-51
2022/09/02 08:22:57;;;;;;;3.70;2.20;;;;;;;22.22;90.07;96344.63;5030485;28;20127;-49
2022/09/02 08:25:45;;;;;;;3.85;1.90;;;;;;;21.77;84.22;96353.63;5030173;28;20081;-52
2022/09/02 08:28:14;;;;;;;2.72;1.95;;;;;;;21.80;79.23;96352.38;5030603;28;20097;-57
2022/09/02 08:30:44;;;;;;;2.35;1.85;;;;;;;21.61;77.09;96351.50;5029426;28;20085;-49
2022/09/02 08:33:13;;;;;;;4.95;1.88;;;;;;;22.44;68.96;96340.50;5028836;28;20471;-53
2022/09/02 08:35:41;;;;;;;3.08;1.90;;;;;;;22.21;69.69;96337.63;5030263;28;20081;-50
2022/09/02 08:38:09;;;;;;;3.85;1.77;;;;;;;22.51;66.20;96345.81;5026994;28;20535;-52
2022/09/02 08:40:40;;;;;;;2.67;1.95;;;;;;;22.46;69.32;96340.25;5029879;28;20088;-48
2022/09/02 08:43:20;;;;;;;2.03;1.60;;;;;;;22.98;61.12;96333.50;5028299;28;20104;-54
2022/09/02 08:45:53;;;;;;;2.25;1.60;;;;;;;22.22;60.54;96342.75;5024915;28;20077;-53
2022/09/02 08:48:25;;;;;;;4.00;1.58;;;;;;;22.90;59.05;96328.41;5029922;28;20624;-51
2022/09/02 08:50:59;;;;;;;2.65;1.50;;;;;;;22.56;56.93;96326.31;5029610;28;20088;-49
2022/09/02 08:53:30;;;;;;;2.95;1.50;;;;;;;23.26;55.23;96318.66;5025868;28;20089;-48
2022/09/02 08:56:00;;;;;;;2.72;1.70;;;;;;;23.05;54.07;96319.97;5029708;28;20096;-49
2022/09/02 08:58:32;;;;;;;2.40;1.70;;;;;;;23.46;53.28;96321.06;5029771;28;20064;-53
2022/09/02 09:01:06;;;;;;;2.47;1.52;;;;;;;23.18;54.20;96313.59;5029247;28;20081;-50
2022/09/02 09:03:39;;;;;;;3.30;1.65;;;;;;;22.87;57.12;96323.47;5029567;28;20081;-48
2022/09/02 09:06:14;;;;;;;5.72;1.75;;;;;;;22.84;53.88;96310.47;5026874;28;20073;-53
2022/09/02 09:08:50;;;;;;;3.88;1.67;;;;;;;22.68;51.70;96305.72;5029443;28;20085;-54
2022/09/02 09:11:23;;;;;;;1.92;1.40;;;;;;;22.74;51.64;96315.56;5029340;28;20087;-51
2022/09/02 09:14:03;;;;;;;3.25;1.48;;;;;;;22.84;51.40;96315.03;5030221;28;20081;-56
2022/09/02 09:16:39;;;;;;;4.45;1.60;;;;;;;23.84;51.34;96311.81;5029780;28;20104;-48
2022/09/02 09:19:14;;;;;;;3.47;1.40;;;;;;;23.26;46.21;96309.75;5029422;28;20465;-48
2022/09/02 09:21:43;;;;;;;4.53;1.40;;;;;;;23.26;44.94;96302.50;5027787;28;20534;-48
2022/09/02 09:24:22;;;;;;;3.38;1.55;;;;;;;23.26;46.07;96312.44;5029643;28;20533;-47
2022/09/02 09:26:50;;;;;;;2.65;1.60;;;;;;;23.15;44.92;96312.16;5029510;28;20084;-53
2022/09/02 09:29:18;;;;;;;1.70;1.38;;;;;;;23.49;45.75;96309.03;5027901;28;20088;-53
2022/09/02 09:31:51;;;;;;;2.35;1.63;;;;;;;23.92;45.16;96316.88;5028783;28;20516;-51
2022/09/02 09:34:19;;;;;;;1.50;1.30;;;;;;;23.63;44.87;96307.75;5028761;28;20471;-51
2022/09/02 09:36:54;;;;;;;3.45;1.38;;;;;;;24.34;44.46;96306.00;5029519;28;20077;-51
2022/09/02 09:39:25;;;;;;;4.80;1.35;;;;;;;24.76;44.00;96298.56;5021885;28;20090;-52
2022/09/02 09:41:56;;;;;;;2.55;1.20;;;;;;;24.18;44.34;96299.44;5021659;28;20123;-53
2022/09/02 09:44:44;;;;;;;1.45;1.23;;;;;;;23.51;43.92;96298.84;5029506;28;20088;-49
2022/09/02 09:47:19;;;;;;;1.67;1.38;;;;;;;24.33;43.83;96293.59;5028804;28;20084;-55
2022/09/02 09:49:49;;;;;;;1.75;1.50;;;;;;;24.16;44.99;96283.50;5022476;28;20444;-47
2022/09/02 09:52:24;;;;;;;;;;;;;;;24.06;42.14;96294.06;5025378;28;20084;-56
2022/09/02 09:55:14;;;;;;;2.67;1.20;;;;;;;23.66;41.86;96291.16;5022807;28;19949;-51
2022/09/02 09:57:52;;;;;;;2.67;1.30;;;;;;;24.20;41.14;96281.16;5028457;28;20534;-52
2022/09/02 10:00:22;;;;;;;4.07;1.33;;;;;;;25.12;40.96;96272.34;5028755;28;20459;-52
2022/09/02 10:02:52;;;;;;;;;;;;;;;24.47;39.73;96267.22;5023343;28;20061;-51
2022/09/02 10:05:35;;;;;;;1.50;1.10;;;;;;;24.43;40.03;96280.34;5029012;28;19952;-51
2022/09/02 10:08:04;;;;;;;3.20;1.33;;;;;;;24.23;40.07;96280.69;5024213;28;20092;-55
2022/09/02 10:10:56;;;;;;;2.83;1.20;;;;;;;24.56;39.33;96285.47;5028719;28;20092;-50
2022/09/02 10:13:28;;;;;;;1.73;1.20;;;;;;;24.35;38.91;96286.06;5028903;28;20092;-51
2022/09/02 10:16:15;;;;;;;1.45;1.20;;;;;;;24.52;38.50;96284.31;5027790;28;20095;-54
2022/09/02 10:18:48;;;;;;;1.77;1.10;;;;;;;24.87;37.95;96276.13;5024594;28;20084;-48
2022/09/02 10:21:27;;;;;;;2.13;1.20;;;;;;;25.11;38.47;96273.38;5028394;28;20076;-52
2022/09/02 10:23:59;;;;;;;1.70;1.05;;;;;;;25.09;38.73;96275.50;5028483;28;20068;-46
2022/09/02 10:26:36;;;;;;;1.60;1.40;;;;;;;25.21;39.89;96270.88;5026466;28;20073;-50
2022/09/02 10:29:27;;;;;;;1.92;1.30;;;;;;;25.78;39.07;96272.69;5028792;28;20096;-51
2022/09/02 10:32:10;;;;;;;3.88;1.30;;;;;;;25.38;39.39;96268.22;5023730;28;20131;-50
2022/09/02 10:34:45;;;;;;;3.00;1.25;;;;;;;25.43;40.68;96270.16;5028411;28;20049;-54
2022/09/02 10:37:17;;;;;;;2.70;1.17;;;;;;;25.41;41.22;96269.63;5023298;28;20064;-50
2022/09/02 10:40:02;;;;;;;2.45;1.13;;;;;;;25.46;40.68;96258.88;5028357;28;20077;-48
2022/09/02 10:42:35;;;;;;;3.28;1.20;;;;;;;25.41;38.68;96270.44;5023120;28;20424;-49
2022/09/02 10:45:10;;;;;;;2.08;1.33;;;;;;;25.61;38.66;96258.34;5025574;28;20084;-49
2022/09/02 10:47:39;;;;;;;2.03;1.20;;;;;;;25.56;39.59;96262.56;5028080;28;20077;-54
2022/09/02 10:50:16;;;;;;;3.27;1.30;;;;;;;26.17;38.21;96253.84;5028118;28;20519;-51
2022/09/02 10:53:03;;;;;;;1.73;1.27;;;;;;;25.80;37.76;96255.16;5028113;28;20542;-51
2022/09/02 10:55:42;;;;;;;2.88;1.30;;;;;;;25.21;38.87;96260.06;5030912;28;20092;-53
2022/09/02 10:58:14;;;;;;;1.75;1.40;;;;;;;25.53;38.78;96248.75;5029902;28;20078;-52
2022/09/02 11:00:44;;;;;;;2.83;1.30;;;;;;;25.69;38.56;96253.34;5031469;28;20092;-51
2022/09/02 11:03:14;;;;;;;2.92;1.30;;;;;;;25.21;38.06;96246.59;5031525;28;20107;-53
2022/09/02 11:05:48;;;;;;;3.30;1.27;;;;;;;25.56;37.56;96242.84;5032811;28;20077;-51
2022/09/02 11:08:24;;;;;;;1.75;1.27;;;;;;;25.55;36.50;96242.03;5031883;28;20076;-55
2022/09/02 11:11:03;;;;;;;2.55;1.30;;;;;;;25.67;36.89;96239.28;5031603;28;20473;-51
2022/09/02 11:13:37;;;;;;;2.83;1.20;;;;;;;25.08;37.36;96238.75;5030215;28;20084;-52
2022/09/02 11:16:13;;;;;;;1.42;1.13;;;;;;;25.61;36.08;96234.84;5026278;28;20065;-54
2022/09/02 11:18:47;;;;;;;1.45;1.30;;;;;;;24.97;37.01;96236.94;5032271;28;20076;-53
2022/09/02 11:21:28;;;;;;;3.22;1.30;;;;;;;25.79;37.65;96237.34;5029201;28;20084;-54
2022/09/02 11:24:04;;;;;;;3.72;1.30;;;;;;;25.52;37.33;96226.34;5031417;28;20087;-52
2022/09/02 11:26:37;;;;;;;2.80;1.40;;;;;;;25.70;38.43;96238.78;5031329;28;20085;-53
2022/09/02 11:29:10;;;;;;;4.13;1.30;;;;;;;25.59;37.94;96236.97;5031588;28;20076;-51
2022/09/02 11:31:43;;;;;;;2.65;1.40;;;;;;;25.70;36.51;96227.97;5024274;28;20087;-52
2022/09/02 11:34:20;;;;;;;1.77;1.20;;;;;;;26.08;36.05;96226.41;5025887;28;20073;-51
2022/09/02 11:36:50;;;;;;;1.40;1.20;;;;;;;25.47;37.12;96215.47;5031622;28;20081;-49
2022/09/02 11:39:25;;;;;;;3.10;1.20;;;;;;;25.38;38.00;96214.22;5031267;28;20127;-49
2022/09/02 11:42:21;;;;;;;2.45;1.30;;;;;;;25.92;38.03;96216.47;5024532;28;20206;-49
2022/09/02 11:45:12;;;;;;;1.85;1.05;;;;;;;25.77;37.19;96217.84;5028229;28;20080;-51
2022/09/02 11:48:13;;;;;;;2.67;1.40;;;;;;;25.43;37.38;96218.88;5031008;28;20449;-54